Time;durP1;ratioP1;P1;durP2;ratioP2;P2;SDS_P1;SDS_P2;PMS_P1;PMS_P2;Temp;Humidity;BMP_temperature;BMP_pressure;BME280_temperature;BME280_humidity;BME280_pressure;Samples;Min_cycle;Max_cycle;Signal;HPM_P1;HPM_P2
2019/09/11 00:00:01;;;;;;;8.1;4.9;;;;;;;11.53;85.43555;1007.392;;;;
2019/09/11 00:02:26;;;;;;;8.9;5.2;;;;;;;11.37;85.98926;1007.392;;;;
2019/09/11 00:04:51;;;;;;;7;5.1;;;;;;;11.28;86.32813;1007.397;;;;
2019/09/11 00:07:17;;;;;;;8.9;5.1;;;;;;;11.31;86.17285;1007.391;;;;
2019/09/11 00:09:42;;;;;;;8.2;5;;;;;;;11.29;86.2959;1007.384;;;;
2019/09/11 00:12:07;;;;;;;8.4;4.9;;;;;;;11.29;86.27246;1007.4;;;;
2019/09/11 00:14:32;;;;;;;8.5;5.1;;;;;;;11.26;86.28809;1007.385;;;;
2019/09/11 00:16:57;;;;;;;7.8;5;;;;;;;11.2;86.43848;1007.425;;;;
2019/09/11 00:19:22;;;;;;;8.6;5.3;;;;;;;11.11;86.69531;1007.411;;;;
2019/09/11 00:21:47;;;;;;;8.3;5.2;;;;;;;11;86.96973;1007.412;;;;
2019/09/11 00:24:12;;;;;;;9.2;5.1;;;;;;;10.99;87.25488;1007.387;;;;
2019/09/11 00:26:37;;;;;;;7.9;5.2;;;;;;;11;87.26953;1007.366;;;;
2019/09/11 00:29:02;;;;;;;8.6;6.3;;;;;;;11.11;86.93652;1007.412;;;;
2019/09/11 00:31:28;;;;;;;7.3;5.2;;;;;;;11.19;86.5625;1007.443;;;;
2019/09/11 00:33:53;;;;;;;6.6;4.7;;;;;;;11.17;86.43262;1007.393;;;;
2019/09/11 00:36:18;;;;;;;5.9;4.7;;;;;;;11.13;86.75684;1007.381;;;;
2019/09/11 00:38:43;;;;;;;7.2;5.3;;;;;;;11.08;86.96484;1007.339;;;;
2019/09/11 00:41:08;;;;;;;8;5.1;;;;;;;11.07;86.93848;1007.364;;;;
2019/09/11 00:43:33;;;;;;;6.9;5.3;;;;;;;11.08;86.61914;1007.426;;;;
2019/09/11 00:45:58;;;;;;;8;4.9;;;;;;;11.14;86.28809;1007.454;;;;
2019/09/11 00:48:23;;;;;;;6.2;4.5;;;;;;;10.94;86.7168;1007.403;;;;
2019/09/11 00:50:48;;;;;;;6.5;5.3;;;;;;;10.78;87.37305;1007.452;;;;
2019/09/11 00:53:14;;;;;;;8.4;5.1;;;;;;;10.77;87.42871;1007.445;;;;
2019/09/11 00:55:39;;;;;;;9.3;5.6;;;;;;;10.84;87.53516;1007.472;;;;
2019/09/11 00:58:04;;;;;;;9.6;6;;;;;;;10.86;87.25195;1007.474;;;;
2019/09/11 01:00:29;;;;;;;7.2;5.3;;;;;;;10.89;87.28027;1007.477;;;;
2019/09/11 01:02:54;;;;;;;6.6;4.9;;;;;;;10.82;87.08496;1007.453;;;;
2019/09/11 01:05:19;;;;;;;8.9;5.1;;;;;;;10.73;87.42188;1007.493;;;;
2019/09/11 01:07:44;;;;;;;7.3;5.5;;;;;;;10.66;87.89941;1007.507;;;;
2019/09/11 01:10:09;;;;;;;7.5;5.4;;;;;;;10.69;87.77832;1007.474;;;;
2019/09/11 01:12:34;;;;;;;8.3;5.1;;;;;;;10.66;87.8291;1007.462;;;;
2019/09/11 01:15:00;;;;;;;8.5;5;;;;;;;10.64;87.84961;1007.421;;;;
2019/09/11 01:17:25;;;;;;;8.3;5.1;;;;;;;10.62;87.95898;1007.421;;;;
2019/09/11 01:19:50;;;;;;;7.5;5.1;;;;;;;10.58;88.03027;1007.394;;;;
2019/09/11 01:22:15;;;;;;;8.6;5.1;;;;;;;10.57;87.95898;1007.378;;;;
2019/09/11 01:24:41;;;;;;;8.2;5.1;;;;;;;10.57;87.65234;1007.388;;;;
2019/09/11 01:27:06;;;;;;;6.4;4.9;;;;;;;10.55;87.28223;1007.384;;;;
2019/09/11 01:29:31;;;;;;;6.7;4.9;;;;;;;10.6;87.10742;1007.388;;;;
2019/09/11 01:31:56;;;;;;;7.1;4.8;;;;;;;10.56;87.07813;1007.43;;;;
2019/09/11 01:34:21;;;;;;;8.2;5.3;;;;;;;10.39;87.54688;1007.457;;;;
2019/09/11 01:36:46;;;;;;;8.5;4.8;;;;;;;10.3;88.08887;1007.48;;;;
2019/09/11 01:39:11;;;;;;;7.8;4.9;;;;;;;10.31;88.24023;1007.469;;;;
2019/09/11 01:41:37;;;;;;;6.9;4.8;;;;;;;10.41;88.03125;1007.525;;;;
2019/09/11 01:44:02;;;;;;;8.8;5.1;;;;;;;10.49;87.66016;1007.493;;;;
2019/09/11 01:46:27;;;;;;;7.7;5.1;;;;;;;10.49;87.54395;1007.524;;;;
2019/09/11 01:48:52;;;;;;;6.9;4.9;;;;;;;10.45;87.71777;1007.566;;;;
2019/09/11 01:51:17;;;;;;;7.9;4.9;;;;;;;10.37;87.84082;1007.577;;;;
2019/09/11 01:53:43;;;;;;;7.8;5.1;;;;;;;10.33;87.96875;1007.612;;;;
2019/09/11 01:56:08;;;;;;;9;5;;;;;;;10.38;88.09277;1007.646;;;;
2019/09/11 01:58:33;;;;;;;7.9;5.1;;;;;;;10.4;88.07324;1007.625;;;;
2019/09/11 02:00:58;;;;;;;9.7;5.4;;;;;;;10.33;88.12891;1007.612;;;;
2019/09/11 02:03:23;;;;;;;6.8;5.1;;;;;;;10.39;87.99121;1007.588;;;;
2019/09/11 02:05:48;;;;;;;7.3;5;;;;;;;10.4;87.74121;1007.6;;;;
2019/09/11 02:08:14;;;;;;;8.4;5.4;;;;;;;10.31;88.13672;1007.608;;;;
2019/09/11 02:10:39;;;;;;;7.8;5.4;;;;;;;10.31;88.34277;1007.552;;;;
2019/09/11 02:13:04;;;;;;;8;4.9;;;;;;;10.35;88.12109;1007.524;;;;
2019/09/11 02:15:29;;;;;;;8.9;5.1;;;;;;;10.39;87.80859;1007.522;;;;
2019/09/11 02:17:54;;;;;;;7.9;5.3;;;;;;;10.33;87.90234;1007.554;;;;
2019/09/11 02:20:19;;;;;;;6.4;5;;;;;;;10.35;87.84668;1007.528;;;;
2019/09/11 02:22:44;;;;;;;7.4;4.5;;;;;;;10.34;87.30664;1007.564;;;;
2019/09/11 02:25:09;;;;;;;8.1;4.8;;;;;;;10.21;87.47559;1007.614;;;;
2019/09/11 02:27:35;;;;;;;7.5;5.1;;;;;;;10.1;87.98047;1007.592;;;;
2019/09/11 02:30:00;;;;;;;8.6;4.8;;;;;;;10.11;88.03906;1007.588;;;;
2019/09/11 02:32:25;;;;;;;7.1;5.1;;;;;;;10.25;87.72168;1007.641;;;;
2019/09/11 02:34:50;;;;;;;7.9;4.8;;;;;;;10.33;87.14453;1007.602;;;;
2019/09/11 02:37:15;;;;;;;7.8;4.9;;;;;;;10.26;87.19922;1007.667;;;;
2019/09/11 02:39:40;;;;;;;7.8;5.3;;;;;;;10.13;87.57617;1007.602;;;;
2019/09/11 02:42:05;;;;;;;8.3;5.5;;;;;;;10;88.23242;1007.633;;;;
2019/09/11 02:44:30;;;;;;;8.7;5.3;;;;;;;10.07;88.33691;1007.651;;;;
2019/09/11 02:46:55;;;;;;;6.1;4.8;;;;;;;10.07;87.80273;1007.655;;;;
2019/09/11 02:49:20;;;;;;;7.5;5.1;;;;;;;10.02;87.79199;1007.674;;;;
2019/09/11 02:51:45;;;;;;;7.6;5.1;;;;;;;10.04;87.62402;1007.666;;;;
2019/09/11 02:54:11;;;;;;;7.5;5.3;;;;;;;9.89;87.90332;1007.668;;;;
2019/09/11 02:56:36;;;;;;;6.7;4.7;;;;;;;10.02;87.71191;1007.719;;;;
2019/09/11 02:59:01;;;;;;;7.2;5.2;;;;;;;10.13;86.94336;1007.763;;;;
2019/09/11 03:01:26;;;;;;;6.6;5.1;;;;;;;10.19;86.32813;1007.801;;;;
2019/09/11 03:03:51;;;;;;;9.4;4.8;;;;;;;10.09;86.4209;1007.79;;;;
2019/09/11 03:06:16;;;;;;;5.5;4.3;;;;;;;10;86.72363;1007.775;;;;
2019/09/11 03:08:42;;;;;;;6.5;4.6;;;;;;;9.85;87.21973;1007.806;;;;
2019/09/11 03:11:07;;;;;;;7.3;4.7;;;;;;;9.8;87.35938;1007.787;;;;
2019/09/11 03:13:32;;;;;;;5;4.5;;;;;;;9.85;87.26563;1007.852;;;;
2019/09/11 03:15:57;;;;;;;8.8;5.1;;;;;;;9.81;87.17676;1007.867;;;;
2019/09/11 03:18:22;;;;;;;8.5;5.5;;;;;;;9.69;88.57031;1007.797;;;;
2019/09/11 03:20:47;;;;;;;9.9;6.2;;;;;;;9.66;89.27246;1007.818;;;;
2019/09/11 03:23:12;;;;;;;10.2;6.8;;;;;;;9.64;88.99512;1007.893;;;;
2019/09/11 03:25:37;;;;;;;9.9;5.1;;;;;;;9.73;88.89746;1007.948;;;;
2019/09/11 03:28:02;;;;;;;8.5;5.2;;;;;;;9.72;88.46289;1007.992;;;;
2019/09/11 03:30:28;;;;;;;7.4;5.5;;;;;;;9.66;88.78125;1008.015;;;;
2019/09/11 03:32:53;;;;;;;8.7;5.9;;;;;;;9.64;89.38281;1008.005;;;;
2019/09/11 03:35:18;;;;;;;6.8;5;;;;;;;9.74;88.85547;1008.04;;;;
2019/09/11 03:37:43;;;;;;;8;5.2;;;;;;;9.72;88.37207;1008.055;;;;
2019/09/11 03:40:08;;;;;;;9.3;5.7;;;;;;;9.59;89.52051;1008.019;;;;
2019/09/11 03:42:33;;;;;;;8.3;5.1;;;;;;;9.65;89.03125;1008.071;;;;
2019/09/11 03:44:58;;;;;;;6.6;4.6;;;;;;;9.76;88.49316;1008.033;;;;
2019/09/11 03:47:23;;;;;;;9.1;7;;;;;;;9.75;88.31836;1008.129;;;;
2019/09/11 03:49:48;;;;;;;7.3;4.7;;;;;;;9.85;87.72168;1008.115;;;;
2019/09/11 03:52:14;;;;;;;6.1;4.5;;;;;;;9.76;87.09766;1008.178;;;;
2019/09/11 03:54:39;;;;;;;6.2;4.6;;;;;;;9.63;87.03809;1008.177;;;;
2019/09/11 03:57:04;;;;;;;7.5;4.7;;;;;;;9.58;87.14258;1008.183;;;;
2019/09/11 03:59:29;;;;;;;6.1;4.3;;;;;;;9.62;86.96777;1008.239;;;;
2019/09/11 04:02:28;;;;;;;7.2;5;;;;;;;9.53;87.0752;1008.28;;;;
2019/09/11 04:04:53;;;;;;;5.9;4.4;;;;;;;9.48;87.44043;1008.344;;;;
2019/09/11 04:07:18;;;;;;;7.8;4.8;;;;;;;9.47;87.39551;1008.398;;;;
2019/09/11 04:09:43;;;;;;;7.3;4.6;;;;;;;9.47;87.16504;1008.45;;;;
2019/09/11 04:12:08;;;;;;;6.6;4.9;;;;;;;9.29;87.64355;1008.567;;;;
2019/09/11 04:14:33;;;;;;;7.3;4.8;;;;;;;9.19;88.30859;1008.589;;;;
2019/09/11 04:16:58;;;;;;;8.6;4.6;;;;;;;9.19;88.18262;1008.624;;;;
2019/09/11 04:19:23;;;;;;;6.7;4.9;;;;;;;9.17;88.01758;1008.617;;;;
2019/09/11 04:21:48;;;;;;;6.6;4.7;;;;;;;9.12;88.01855;1008.662;;;;
2019/09/11 04:24:14;;;;;;;6.6;4.7;;;;;;;9.08;88.32031;1008.653;;;;
2019/09/11 04:26:39;;;;;;;8.6;5.1;;;;;;;9.12;88.29395;1008.678;;;;
2019/09/11 04:29:04;;;;;;;6.9;5.2;;;;;;;9.14;88.56934;1008.736;;;;
2019/09/11 04:31:29;;;;;;;7;5.1;;;;;;;9.19;88.65137;1008.818;;;;
2019/09/11 04:33:54;;;;;;;7.1;5.2;;;;;;;9.24;88.95703;1008.836;;;;
2019/09/11 04:36:19;;;;;;;7.1;5.1;;;;;;;9.19;89.30176;1008.797;;;;
2019/09/11 04:38:44;;;;;;;6.6;5;;;;;;;9.26;88.7666;1008.823;;;;
2019/09/11 04:41:09;;;;;;;7.8;5.5;;;;;;;9.3;88.43359;1008.863;;;;
2019/09/11 04:43:34;;;;;;;8;5.5;;;;;;;9.26;88.4375;1008.905;;;;
2019/09/11 04:46:00;;;;;;;7.4;5.3;;;;;;;9.21;88.10645;1008.907;;;;
2019/09/11 04:48:25;;;;;;;5.9;4.4;;;;;;;9.19;87.53223;1009.022;;;;
2019/09/11 04:50:50;;;;;;;8.3;4.8;;;;;;;9.08;87.48633;1009.094;;;;
2019/09/11 04:53:15;;;;;;;7;5.1;;;;;;;8.98;88.15039;1009.079;;;;
2019/09/11 04:55:40;;;;;;;7.1;5.3;;;;;;;8.91;88.79688;1009.102;;;;
2019/09/11 04:58:05;;;;;;;9.2;5.1;;;;;;;9;88.70117;1009.143;;;;
2019/09/11 05:00:30;;;;;;;7.7;5.2;;;;;;;9.15;88.43848;1009.081;;;;
2019/09/11 05:02:55;;;;;;;7.1;4.7;;;;;;;9.3;87.62109;1009.027;;;;
2019/09/11 05:05:20;;;;;;;7.8;5.4;;;;;;;9.31;87.62305;1009.045;;;;
2019/09/11 05:07:45;;;;;;;10.5;6.9;;;;;;;9.37;87.52148;1009.04;;;;
2019/09/11 05:10:10;;;;;;;9.8;5.3;;;;;;;9.32;87.86621;1009.059;;;;
2019/09/11 05:12:35;;;;;;;6.7;4.9;;;;;;;9.42;87.07617;1009.129;;;;
2019/09/11 05:15:00;;;;;;;6.6;4.8;;;;;;;9.47;86.82422;1009.099;;;;
2019/09/11 05:17:26;;;;;;;11.5;5.4;;;;;;;9.63;86.21484;1009.141;;;;
2019/09/11 05:19:51;;;;;;;7;5;;;;;;;9.66;86.11816;1009.179;;;;
2019/09/11 05:22:16;;;;;;;8.8;4.8;;;;;;;9.74;85.7793;1009.279;;;;
2019/09/11 05:24:41;;;;;;;11.3;5.6;;;;;;;9.76;85.22363;1009.349;;;;
2019/09/11 05:27:06;;;;;;;8.8;4.6;;;;;;;9.57;85.1748;1009.357;;;;
2019/09/11 05:29:31;;;;;;;8.9;5;;;;;;;9.49;85.45508;1009.37;;;;
2019/09/11 05:31:56;;;;;;;8.3;5.1;;;;;;;9.55;85.43359;1009.437;;;;
2019/09/11 05:34:21;;;;;;;9.7;4.9;;;;;;;9.58;85.70313;1009.445;;;;
2019/09/11 05:36:46;;;;;;;8.9;5.2;;;;;;;9.63;86.04395;1009.413;;;;
2019/09/11 05:39:12;;;;;;;10.8;5.5;;;;;;;9.79;85.33301;1009.508;;;;
2019/09/11 05:41:37;;;;;;;9.3;5.1;;;;;;;9.78;84.81738;1009.533;;;;
2019/09/11 05:44:02;;;;;;;10.9;6.1;;;;;;;9.78;84.83984;1009.52;;;;
2019/09/11 05:46:27;;;;;;;11.3;5.5;;;;;;;9.85;84.60059;1009.566;;;;
2019/09/11 05:48:52;;;;;;;8.4;5;;;;;;;9.86;84.76465;1009.553;;;;
2019/09/11 05:51:17;;;;;;;7;4.9;;;;;;;10.05;84.20508;1009.532;;;;
2019/09/11 05:53:42;;;;;;;9.9;5.3;;;;;;;10.12;84.15039;1009.486;;;;
2019/09/11 05:56:08;;;;;;;7.3;5.1;;;;;;;10.17;84.05859;1009.492;;;;
2019/09/11 05:58:33;;;;;;;9.4;5.5;;;;;;;10.27;83.63281;1009.5;;;;
2019/09/11 06:00:58;;;;;;;7.4;4.9;;;;;;;10.21;84.44434;1009.486;;;;
2019/09/11 06:03:23;;;;;;;8.4;5.2;;;;;;;10.47;83.94434;1009.487;;;;
2019/09/11 06:05:48;;;;;;;8.3;4.8;;;;;;;10.58;83.54395;1009.467;;;;
2019/09/11 06:08:13;;;;;;;9.6;5.4;;;;;;;10.8;83.37891;1009.515;;;;
2019/09/11 06:10:38;;;;;;;7.8;5.2;;;;;;;11.03;82.60059;1009.539;;;;
2019/09/11 06:13:04;;;;;;;9.5;5.7;;;;;;;11.24;81.97363;1009.593;;;;
2019/09/11 06:15:29;;;;;;;13.6;6;;;;;;;11.43;81.51563;1009.621;;;;
2019/09/11 06:17:54;;;;;;;10.4;5.7;;;;;;;11.87;80.89844;1009.596;;;;
2019/09/11 06:20:19;;;;;;;9.2;5.3;;;;;;;12.36;78.91016;1009.581;;;;
2019/09/11 06:22:44;;;;;;;8.5;5.2;;;;;;;12.72;77.43262;1009.629;;;;
2019/09/11 06:25:13;;;;;;;8.5;5;;;;;;;12.81;77.01074;1009.678;;;;
2019/09/11 06:27:38;;;;;;;10;5.6;;;;;;;12.99;76.50195;1009.652;;;;
2019/09/11 06:30:03;;;;;;;10.3;4.9;;;;;;;13.5;74.4248;1009.722;;;;
2019/09/11 06:32:28;;;;;;;8.8;4.8;;;;;;;14.07;72.53711;1009.716;;;;
2019/09/11 06:34:53;;;;;;;8.4;4.6;;;;;;;14.28;71.76465;1009.72;;;;
2019/09/11 06:37:18;;;;;;;8.2;5;;;;;;;14.29;71.88184;1009.761;;;;
2019/09/11 06:39:43;;;;;;;10.1;5.2;;;;;;;14.4;71.04492;1009.799;;;;
2019/09/11 06:42:09;;;;;;;9;5.2;;;;;;;14.85;69.37109;1009.757;;;;
2019/09/11 06:44:34;;;;;;;10.4;5.1;;;;;;;14.74;69.87402;1009.806;;;;
2019/09/11 06:46:59;;;;;;;9.2;5;;;;;;;15.07;69.01367;1009.873;;;;
2019/09/11 06:49:24;;;;;;;7.7;5;;;;;;;15.2;68.51367;1009.856;;;;
2019/09/11 06:51:50;;;;;;;9;4.6;;;;;;;15.89;66.09473;1009.954;;;;
2019/09/11 06:54:14;;;;;;;7.7;4.5;;;;;;;16.61;63.71875;1009.998;;;;
2019/09/11 06:56:40;;;;;;;6;4.6;;;;;;;18.15;58.46777;1010.056;;;;
2019/09/11 06:59:05;;;;;;;8.4;5.7;;;;;;;18.63;56.45605;1010.062;;;;
2019/09/11 07:01:30;;;;;;;6.5;4.7;;;;;;;19.25;53.94336;1010.053;;;;
2019/09/11 07:03:55;;;;;;;5.5;4.2;;;;;;;19.75;52.91699;1010.117;;;;
2019/09/11 07:06:20;;;;;;;6.9;4.6;;;;;;;19.16;54.28223;1010.106;;;;
2019/09/11 07:08:45;;;;;;;8.2;4.7;;;;;;;21.38;48.33594;1010.088;;;;
2019/09/11 07:11:10;;;;;;;8.5;5;;;;;;;20.36;50.12109;1010.127;;;;
2019/09/11 07:13:35;;;;;;;8.5;5;;;;;;;20.47;50.6377;1010.123;;;;
2019/09/11 07:16:00;;;;;;;6.3;4.3;;;;;;;21.72;48.09082;1010.153;;;;
2019/09/11 07:18:26;;;;;;;7.8;5;;;;;;;22.18;46.18848;1010.188;;;;
2019/09/11 07:20:51;;;;;;;6.6;4.4;;;;;;;22.86;44.40039;1010.21;;;;
2019/09/11 07:23:16;;;;;;;9.7;5.9;;;;;;;22.33;45.86426;1010.226;;;;
2019/09/11 07:25:41;;;;;;;8.2;4.8;;;;;;;22.1;45.79297;1010.311;;;;
2019/09/11 07:28:06;;;;;;;8;4.8;;;;;;;21.96;45.97949;1010.302;;;;
2019/09/11 07:30:31;;;;;;;6.5;4.7;;;;;;;22.85;44.20996;1010.387;;;;
2019/09/11 07:32:56;;;;;;;8.4;4.7;;;;;;;24.52;40.87891;1010.36;;;;
2019/09/11 07:35:21;;;;;;;8.6;4.8;;;;;;;25.19;38.43164;1010.447;;;;
2019/09/11 07:37:46;;;;;;;7.3;4.8;;;;;;;24.67;39.49707;1010.465;;;;
2019/09/11 07:40:11;;;;;;;9.3;5.2;;;;;;;23.96;40.88672;1010.471;;;;
2019/09/11 07:42:37;;;;;;;7.8;4.6;;;;;;;24.18;39.90234;1010.525;;;;
2019/09/11 07:45:02;;;;;;;9.7;5.3;;;;;;;23.52;40.96289;1010.595;;;;
2019/09/11 07:47:27;;;;;;;12;5.3;;;;;;;23.25;42.15234;1010.63;;;;
2019/09/11 07:49:52;;;;;;;10;5.3;;;;;;;23.69;41.45117;1010.603;;;;
2019/09/11 07:52:17;;;;;;;6.9;4.9;;;;;;;24.6;39.78613;1010.605;;;;
2019/09/11 07:54:42;;;;;;;6.2;4.6;;;;;;;24.77;39.25684;1010.606;;;;
2019/09/11 07:57:07;;;;;;;7.4;4.5;;;;;;;24.28;39.60449;1010.58;;;;
2019/09/11 07:59:32;;;;;;;6.3;4.4;;;;;;;23.49;41.33789;1010.636;;;;
2019/09/11 08:01:58;;;;;;;9.6;4.7;;;;;;;24.95;38.92969;1010.585;;;;
2019/09/11 08:04:23;;;;;;;8.9;4.8;;;;;;;24.31;40.2207;1010.58;;;;
2019/09/11 08:06:48;;;;;;;8;4.4;;;;;;;26.05;37.11719;1010.622;;;;
2019/09/11 08:09:13;;;;;;;9.2;4.7;;;;;;;24.52;38.8457;1010.593;;;;
2019/09/11 08:11:38;;;;;;;8.6;4.4;;;;;;;25.57;37.65723;1010.638;;;;
2019/09/11 08:14:03;;;;;;;5.8;4.7;;;;;;;25.74;37.4707;1010.63;;;;
2019/09/11 08:16:28;;;;;;;7.6;4.6;;;;;;;24.98;38.71973;1010.675;;;;
2019/09/11 08:18:53;;;;;;;7;4.7;;;;;;;23.93;40.80078;1010.644;;;;
2019/09/11 08:21:18;;;;;;;7.7;4.5;;;;;;;24.67;39.52051;1010.626;;;;
2019/09/11 08:23:43;;;;;;;8.7;4.8;;;;;;;24.58;39.33496;1010.606;;;;
2019/09/11 08:26:08;;;;;;;6.4;4.9;;;;;;;25;38.44922;1010.641;;;;
2019/09/11 08:28:33;;;;;;;7;4.7;;;;;;;24.93;38.92773;1010.626;;;;
2019/09/11 08:30:59;;;;;;;8.5;4.6;;;;;;;25.19;38.24121;1010.682;;;;
2019/09/11 08:33:24;;;;;;;5.1;4.6;;;;;;;23.91;41.31836;1010.695;;;;
2019/09/11 08:35:49;;;;;;;9;4.9;;;;;;;24.56;40.34961;1010.715;;;;
2019/09/11 08:38:14;;;;;;;6.2;4.6;;;;;;;24.83;39.57031;1010.785;;;;
2019/09/11 08:40:39;;;;;;;7.5;4.9;;;;;;;24.79;39.85059;1010.786;;;;
2019/09/11 08:43:04;;;;;;;7.6;4.5;;;;;;;24.62;40.46191;1010.738;;;;
2019/09/11 08:45:29;;;;;;;7.3;4.6;;;;;;;25.31;38.78418;1010.711;;;;
2019/09/11 08:47:54;;;;;;;5.8;4.4;;;;;;;26.1;37.67871;1010.683;;;;
2019/09/11 08:50:19;;;;;;;8.2;4.3;;;;;;;26.95;35.88477;1010.731;;;;
2019/09/11 08:52:45;;;;;;;5.7;4.9;;;;;;;26.62;36.43945;1010.697;;;;
2019/09/11 08:55:10;;;;;;;5.7;4.1;;;;;;;25.89;37.28223;1010.642;;;;
2019/09/11 08:57:35;;;;;;;6.5;4.3;;;;;;;25.79;38.00781;1010.637;;;;
2019/09/11 09:00:00;;;;;;;8.2;4.4;;;;;;;26.27;36.82715;1010.578;;;;
2019/09/11 09:02:25;;;;;;;7.3;4.4;;;;;;;26.26;37.16992;1010.584;;;;
2019/09/11 09:04:50;;;;;;;6.8;4.2;;;;;;;26.85;34.99707;1010.591;;;;
2019/09/11 09:07:15;;;;;;;6.4;4.2;;;;;;;26.61;36.14258;1010.565;;;;
2019/09/11 09:09:41;;;;;;;5.6;3.9;;;;;;;27.54;34.94434;1010.603;;;;
2019/09/11 09:12:06;;;;;;;5.6;4;;;;;;;27.17;35.66406;1010.621;;;;
2019/09/11 09:14:31;;;;;;;6.8;4;;;;;;;28.62;32.85742;1010.596;;;;
2019/09/11 09:16:56;;;;;;;4.9;3.8;;;;;;;27.15;35.36523;1010.646;;;;
2019/09/11 09:19:21;;;;;;;5.8;4;;;;;;;26.63;36.5;1010.602;;;;
2019/09/11 09:21:46;;;;;;;5.6;3.7;;;;;;;28.16;33.8125;1010.596;;;;
2019/09/11 09:24:11;;;;;;;4.5;3.6;;;;;;;26.15;36.29492;1010.616;;;;
2019/09/11 09:26:36;;;;;;;6.6;3.5;;;;;;;26.65;36.40723;1010.623;;;;
2019/09/11 09:29:02;;;;;;;7.6;4.1;;;;;;;27.21;35.17969;1010.662;;;;
2019/09/11 09:31:27;;;;;;;5.6;3.5;;;;;;;26.95;34.92188;1010.623;;;;
2019/09/11 09:33:52;;;;;;;5.1;3.6;;;;;;;27.24;34.88477;1010.619;;;;
2019/09/11 09:36:17;;;;;;;4.6;3.6;;;;;;;28.04;33.48145;1010.564;;;;
2019/09/11 09:38:42;;;;;;;5.3;3.6;;;;;;;27.81;33.09668;1010.566;;;;
2019/09/11 09:41:07;;;;;;;14.5;8.7;;;;;;;27.51;33.83594;1010.56;;;;
2019/09/11 09:43:32;;;;;;;3.9;3.2;;;;;;;27.66;33.08496;1010.534;;;;
2019/09/11 09:45:57;;;;;;;5;3.2;;;;;;;27.91;32.3291;1010.531;;;;
2019/09/11 09:48:23;;;;;;;5.8;3.4;;;;;;;27.88;32.81543;1010.525;;;;
2019/09/11 09:50:48;;;;;;;5.8;3.6;;;;;;;27.82;33.03711;1010.511;;;;
2019/09/11 09:53:13;;;;;;;6.3;3.2;;;;;;;28.6;32.29492;1010.494;;;;
2019/09/11 09:55:38;;;;;;;4.7;2.9;;;;;;;28.19;33.35059;1010.524;;;;
2019/09/11 09:58:04;;;;;;;7.2;3.4;;;;;;;29.07;31.61328;1010.499;;;;
2019/09/11 10:00:29;;;;;;;5.1;3.2;;;;;;;28.66;32.35938;1010.485;;;;
2019/09/11 10:02:54;;;;;;;6.3;3.2;;;;;;;29.9;30.86914;1010.467;;;;
2019/09/11 10:05:19;;;;;;;4.7;3.1;;;;;;;30.87;29.06641;1010.464;;;;
2019/09/11 10:07:45;;;;;;;4.9;3.1;;;;;;;30.6;29.18066;1010.422;;;;
2019/09/11 10:10:09;;;;;;;5.6;3.2;;;;;;;29.44;29.87012;1010.456;;;;
2019/09/11 10:12:35;;;;;;;5.8;3.4;;;;;;;27.55;32.73145;1010.465;;;;
2019/09/11 10:15:00;;;;;;;4.9;3.5;;;;;;;26.91;33.43457;1010.477;;;;
2019/09/11 10:17:25;;;;;;;5;3.2;;;;;;;26.99;33.46387;1010.473;;;;
2019/09/11 10:19:51;;;;;;;5.1;3.4;;;;;;;28;32.02637;1010.416;;;;
2019/09/11 10:22:16;;;;;;;6.6;3.6;;;;;;;27.42;33.60254;1010.408;;;;
2019/09/11 10:24:41;;;;;;;5.2;3.5;;;;;;;28.69;31.80078;1010.37;;;;
2019/09/11 10:27:06;;;;;;;5.6;3.2;;;;;;;27.9;33.3291;1010.314;;;;
2019/09/11 10:29:31;;;;;;;4.9;3.3;;;;;;;27.83;33.91992;1010.273;;;;
2019/09/11 10:31:56;;;;;;;5.9;3.3;;;;;;;28.16;33.28809;1010.184;;;;
2019/09/11 10:34:21;;;;;;;4.8;3.2;;;;;;;28.64;32.03613;1010.216;;;;
2019/09/11 10:36:46;;;;;;;7.2;3.9;;;;;;;27.92;33.08105;1010.247;;;;
2019/09/11 10:39:11;;;;;;;5.3;3.3;;;;;;;28.42;32.21094;1010.206;;;;
2019/09/11 10:41:37;;;;;;;5.3;3;;;;;;;27.46;32.36816;1010.226;;;;
2019/09/11 10:44:02;;;;;;;4.5;3.1;;;;;;;26.13;34.71582;1010.19;;;;
2019/09/11 10:46:27;;;;;;;6.1;3.4;;;;;;;25.69;35.25098;1010.175;;;;
2019/09/11 10:48:52;;;;;;;9.2;3.7;;;;;;;24.82;36.48242;1010.122;;;;
2019/09/11 10:51:17;;;;;;;6;3.2;;;;;;;24.55;36.88672;1010.13;;;;
2019/09/11 10:53:42;;;;;;;5.2;2.9;;;;;;;24.72;35.70605;1010.101;;;;
2019/09/11 10:56:07;;;;;;;4.7;2.7;;;;;;;24.5;37.16602;1010.124;;;;
2019/09/11 10:58:32;;;;;;;4.8;3;;;;;;;24.71;34.83008;1010.134;;;;
2019/09/11 11:00:58;;;;;;;4.3;2.8;;;;;;;24.76;34.16113;1010.146;;;;
2019/09/11 11:03:22;;;;;;;5.2;3.1;;;;;;;23.88;34.78906;1010.1;;;;
2019/09/11 11:05:48;;;;;;;5.3;3.3;;;;;;;23.31;36.77148;1010.127;;;;
2019/09/11 11:08:13;;;;;;;4.3;2.8;;;;;;;23.54;36.30762;1010.065;;;;
2019/09/11 11:10:38;;;;;;;6;2.9;;;;;;;23.12;36.0498;1010.108;;;;
2019/09/11 11:13:03;;;;;;;5.5;2.7;;;;;;;23.49;35.6084;1010.002;;;;
2019/09/11 11:15:28;;;;;;;4.8;2.8;;;;;;;23.53;36.57813;1010.02;;;;
2019/09/11 11:17:53;;;;;;;6.1;2.9;;;;;;;23.52;37.24902;1010.03;;;;
2019/09/11 11:20:19;;;;;;;4.4;2.6;;;;;;;24.4;33.88477;1010.07;;;;
2019/09/11 11:22:44;;;;;;;3.9;2.2;;;;;;;24.39;33.73047;1010.058;;;;
2019/09/11 11:25:09;;;;;;;4.4;2.3;;;;;;;24.01;33.61816;1010.076;;;;
2019/09/11 11:27:34;;;;;;;4.7;2.4;;;;;;;24.21;33.84668;1010.084;;;;
2019/09/11 11:29:59;;;;;;;4.6;1.9;;;;;;;24.29;33.20313;1010.086;;;;
2019/09/11 11:32:24;;;;;;;3.2;2;;;;;;;24.1;34.25195;1010.105;;;;
2019/09/11 11:34:49;;;;;;;4.5;1.8;;;;;;;23.95;33.4375;1010.12;;;;
2019/09/11 11:37:14;;;;;;;3;1.7;;;;;;;24.07;33.75391;1010.089;;;;
2019/09/11 11:39:39;;;;;;;3;1.9;;;;;;;24.02;34.50586;1010.103;;;;
2019/09/11 11:42:04;;;;;;;2.4;1.8;;;;;;;24.13;33.91113;1010.099;;;;
2019/09/11 11:44:29;;;;;;;3.6;2.2;;;;;;;24.19;33.85742;1010.106;;;;
2019/09/11 11:46:54;;;;;;;3.2;1.7;;;;;;;24.39;33.8125;1010.134;;;;
2019/09/11 11:49:20;;;;;;;3;2;;;;;;;23.72;34.63477;1010.093;;;;
2019/09/11 11:51:45;;;;;;;3.9;1.7;;;;;;;23.31;34.13184;1010.123;;;;
2019/09/11 11:54:10;;;;;;;3;1.6;;;;;;;23.37;34.04199;1010.171;;;;
2019/09/11 11:56:35;;;;;;;3.4;1.8;;;;;;;23.57;34.57617;1010.109;;;;
2019/09/11 11:59:00;;;;;;;4.7;1.8;;;;;;;23.58;34.42383;1010.094;;;;
2019/09/11 12:01:25;;;;;;;3.1;1.8;;;;;;;23.46;34.37891;1010.165;;;;
2019/09/11 12:03:50;;;;;;;2.6;1.5;;;;;;;23.62;33.18848;1010.092;;;;
2019/09/11 12:06:15;;;;;;;2.1;1.4;;;;;;;23.47;32.91797;1010.069;;;;
2019/09/11 12:08:41;;;;;;;3.6;1.5;;;;;;;23.58;32.63086;1010.028;;;;
2019/09/11 12:11:05;;;;;;;3.5;1.4;;;;;;;23.42;31.41699;1010.053;;;;
2019/09/11 12:13:30;;;;;;;2.8;1.5;;;;;;;23.48;31.97559;1010.041;;;;
2019/09/11 12:15:56;;;;;;;3.3;1.2;;;;;;;23.58;32.19531;1010.035;;;;
2019/09/11 12:18:21;;;;;;;3;1.7;;;;;;;23.4;31.5332;1010.074;;;;
2019/09/11 12:20:46;;;;;;;4.9;1.3;;;;;;;23.7;31.53125;1010.009;;;;
2019/09/11 12:23:11;;;;;;;5.4;1.3;;;;;;;23.69;31.58984;1010.058;;;;
2019/09/11 12:25:36;;;;;;;4.4;1.3;;;;;;;23.74;31.14453;1010.038;;;;
2019/09/11 12:28:01;;;;;;;3.1;1.5;;;;;;;23.32;31.5166;1010.074;;;;
2019/09/11 12:30:26;;;;;;;4.1;1.4;;;;;;;23.44;32.33789;1010.055;;;;
2019/09/11 12:32:52;;;;;;;4;1.6;;;;;;;23.57;32.27637;1009.996;;;;
2019/09/11 12:35:17;;;;;;;4.5;1.4;;;;;;;23.88;32.87793;1010.001;;;;
2019/09/11 12:37:42;;;;;;;2.2;1.5;;;;;;;23.89;32.78418;1010.054;;;;
2019/09/11 12:40:07;;;;;;;4.9;1.7;;;;;;;23.39;32.72363;1010.015;;;;
2019/09/11 12:42:32;;;;;;;4.5;1.9;;;;;;;23.48;33.63867;1010.032;;;;
2019/09/11 12:44:57;;;;;;;4.3;1.8;;;;;;;23.55;33.24219;1010.008;;;;
2019/09/11 12:47:22;;;;;;;4.2;1.7;;;;;;;23.59;33.31543;1009.954;;;;
2019/09/11 12:49:47;;;;;;;2.9;1.7;;;;;;;23.22;33.7832;1010.045;;;;
2019/09/11 12:52:13;;;;;;;4.2;2;;;;;;;23.34;34.1582;1010.017;;;;
2019/09/11 12:54:38;;;;;;;3.2;1.7;;;;;;;23.42;34.14063;1009.985;;;;
2019/09/11 12:57:03;;;;;;;3.8;1.5;;;;;;;23.28;33.13965;1009.928;;;;
2019/09/11 12:59:28;;;;;;;3.2;1.8;;;;;;;23.47;33.07227;1009.918;;;;
2019/09/11 13:01:53;;;;;;;2.4;1.7;;;;;;;23.26;32.39551;1009.982;;;;
2019/09/11 13:04:18;;;;;;;3.3;1.5;;;;;;;23.16;32.53027;1010.021;;;;
2019/09/11 13:06:43;;;;;;;3.6;1.5;;;;;;;23.36;32.25;1009.942;;;;
2019/09/11 13:09:08;;;;;;;3.4;1.5;;;;;;;23.36;32.70996;1009.994;;;;
2019/09/11 13:11:34;;;;;;;4.6;1.8;;;;;;;23.27;32.36133;1009.965;;;;
2019/09/11 13:13:59;;;;;;;2;1.5;;;;;;;23.48;32.80078;1009.911;;;;
2019/09/11 13:16:24;;;;;;;4.8;1.8;;;;;;;23.65;33.32031;1009.944;;;;
2019/09/11 13:18:49;;;;;;;2.6;1.5;;;;;;;23.3;33.6123;1009.937;;;;
2019/09/11 13:21:16;;;;;;;3;1.5;;;;;;;23.08;34.0791;1009.954;;;;
2019/09/11 13:23:39;;;;;;;4.4;1.6;;;;;;;22.76;34.01855;1009.933;;;;
2019/09/11 13:26:04;;;;;;;3.4;1.6;;;;;;;22.75;34.46582;1009.975;;;;
2019/09/11 13:28:29;;;;;;;4;1.6;;;;;;;22.7;34.43848;1009.903;;;;
2019/09/11 13:30:55;;;;;;;5.2;1.6;;;;;;;22.86;34.88672;1009.931;;;;
2019/09/11 13:33:20;;;;;;;2.2;1.4;;;;;;;23.09;34.11523;1009.905;;;;
2019/09/11 13:35:45;;;;;;;3.2;1.7;;;;;;;23.01;34.54492;1009.889;;;;
2019/09/11 13:38:10;;;;;;;2.8;1.5;;;;;;;22.88;34.3457;1009.893;;;;
2019/09/11 13:40:35;;;;;;;2.8;1.8;;;;;;;23.08;34.32617;1009.897;;;;
2019/09/11 13:43:00;;;;;;;1.7;1.4;;;;;;;23.15;35.13281;1009.882;;;;
2019/09/11 13:45:26;;;;;;;4.1;1.7;;;;;;;22.9;34.21875;1009.841;;;;
2019/09/11 13:47:51;;;;;;;3.6;1.7;;;;;;;23.27;35.40137;1009.887;;;;
2019/09/11 13:50:16;;;;;;;3.7;1.9;;;;;;;23.41;36.96875;1009.895;;;;
2019/09/11 13:52:41;;;;;;;3.1;1.8;;;;;;;23.7;34.31543;1009.854;;;;
2019/09/11 13:55:06;;;;;;;4.4;2;;;;;;;23.57;34.72949;1009.848;;;;
2019/09/11 13:57:32;;;;;;;2.9;2;;;;;;;23.51;35.75098;1009.86;;;;
2019/09/11 13:59:57;;;;;;;6;2;;;;;;;23.55;36.41406;1009.88;;;;
2019/09/11 14:02:22;;;;;;;3.8;2.2;;;;;;;23.4;37.19141;1009.876;;;;
2019/09/11 14:04:47;;;;;;;3.2;2;;;;;;;23.64;37.09375;1009.866;;;;
2019/09/11 14:07:12;;;;;;;4.3;2.5;;;;;;;23.43;38.04395;1009.921;;;;
2019/09/11 14:09:37;;;;;;;5.6;2.3;;;;;;;23.45;37.64551;1009.925;;;;
2019/09/11 14:12:03;;;;;;;2.9;2.4;;;;;;;23.51;38.07422;1009.994;;;;
2019/09/11 14:14:28;;;;;;;4.4;2.5;;;;;;;23.52;38.0625;1010.021;;;;